Terminal Aerodrome Forecast
Issued by NWS

Home | Current Version | Previous Version | Text Only | Print | Product List | Glossary On
Versions: 1 2 3 4 5 6 7 8 9 10 11 12 13 14
862
FTUS45 KRIW 271720
TAFCPR
TAF
KCPR 271720Z 2718/2818 VRB08KT P6SM VCSH BKN040
     FM280600 22014KT P6SM SCT040 BKN080=

USA.gov is the U.S. government's official web portal to all federal, state and local government web resources and services.